createdAt,value
2019-03-21T00:01:45.994Z,6.10
2019-03-21T00:05:51.400Z,6.20
2019-03-21T00:10:16.105Z,6.20
2019-03-21T00:14:50.537Z,6.10
2019-03-21T00:18:56.080Z,6.10
2019-03-21T00:23:02.494Z,6.20
2019-03-21T00:27:10.893Z,6.10
2019-03-21T00:31:16.545Z,6.00
2019-03-21T00:35:21.903Z,6.00
2019-03-21T00:39:32.601Z,5.90
2019-03-21T00:43:34.378Z,5.70
2019-03-21T00:47:39.849Z,5.60
2019-03-21T00:51:46.504Z,5.70
2019-03-21T00:55:52.295Z,5.70
2019-03-21T00:59:57.593Z,5.50
2019-03-21T01:04:02.963Z,5.50
2019-03-21T01:08:08.350Z,5.40
2019-03-21T01:12:14.401Z,5.40
2019-03-21T01:16:19.723Z,5.20
2019-03-21T01:20:25.149Z,5.10
2019-03-21T01:24:30.483Z,5.00
2019-03-21T01:28:37.166Z,4.90
2019-03-21T01:32:42.435Z,5.00
2019-03-21T01:36:47.837Z,4.90
2019-03-21T01:40:53.473Z,4.90
2019-03-21T01:44:59.384Z,4.80
2019-03-21T01:49:07.988Z,4.90
2019-03-21T01:53:13.737Z,4.90
2019-03-21T01:57:19.373Z,4.90
2019-03-21T02:01:24.780Z,5.00
2019-03-21T02:05:30.208Z,4.90
2019-03-21T02:09:35.552Z,5.00
2019-03-21T02:13:41.241Z,4.90
2019-03-21T02:17:46.673Z,4.90
2019-03-21T02:21:52.115Z,4.70
2019-03-21T02:25:57.579Z,4.80
2019-03-21T02:30:02.935Z,4.60
2019-03-21T02:34:10.531Z,4.60
2019-03-21T02:38:16.023Z,4.60
2019-03-21T02:42:21.817Z,4.50
2019-03-21T02:46:27.227Z,4.50
2019-03-21T02:50:33.456Z,4.60
2019-03-21T02:54:39.208Z,4.60
2019-03-21T02:58:44.483Z,4.60
2019-03-21T03:02:51.137Z,4.70
2019-03-21T03:06:56.475Z,4.60
2019-03-21T03:11:02.476Z,4.60
2019-03-21T03:15:22.068Z,4.60
2019-03-21T03:19:17.382Z,4.50
2019-03-21T03:23:22.799Z,4.30
2019-03-21T03:27:28.088Z,4.30
2019-03-21T03:31:33.741Z,4.30
2019-03-21T03:35:39.011Z,4.30
2019-03-21T03:39:44.367Z,4.30
2019-03-21T03:43:50.397Z,4.40
2019-03-21T03:47:55.746Z,4.30
2019-03-21T03:52:01.344Z,4.30
2019-03-21T03:56:06.787Z,4.20
2019-03-21T04:00:15.098Z,4.20
2019-03-21T04:04:21.097Z,4.10
2019-03-21T04:08:29.364Z,4.10
2019-03-21T04:12:35.340Z,3.90
2019-03-21T04:16:40.712Z,4.00
2019-03-21T04:20:46.884Z,3.90
2019-03-21T04:24:52.225Z,3.90
2019-03-21T04:28:57.519Z,3.80
2019-03-21T04:33:02.919Z,3.70
2019-03-21T04:37:08.180Z,3.80
2019-03-21T04:41:13.596Z,3.80
2019-03-21T04:45:20.124Z,3.80
2019-03-21T04:49:25.436Z,3.80
2019-03-21T04:53:31.062Z,3.70
2019-03-21T04:57:36.680Z,3.60
2019-03-21T05:01:43.424Z,3.60
2019-03-21T05:05:48.704Z,3.60
2019-03-21T05:09:55.412Z,3.60
2019-03-21T05:14:02.910Z,3.60
2019-03-21T05:18:14.217Z,3.70
2019-03-21T05:22:19.923Z,3.60
2019-03-21T05:26:25.287Z,3.60
2019-03-21T05:30:40.682Z,3.50
2019-03-21T05:34:46.024Z,3.50
2019-03-21T05:38:51.868Z,3.60
2019-03-21T05:43:10.602Z,3.60
2019-03-21T05:47:17.224Z,3.60
2019-03-21T05:51:23.836Z,3.70
2019-03-21T05:55:29.252Z,3.60
2019-03-21T05:59:34.808Z,3.60
2019-03-21T06:03:51.127Z,3.60
2019-03-21T06:08:07.437Z,3.70
2019-03-21T06:12:13.580Z,3.50
2019-03-21T06:16:21.985Z,3.60
2019-03-21T06:20:58.716Z,3.70
2019-03-21T06:25:38.397Z,3.80
2019-03-21T06:29:43.787Z,3.90
2019-03-21T06:33:49.696Z,3.80
2019-03-21T06:37:55.140Z,3.80
2019-03-21T06:42:01.747Z,3.90
2019-03-21T06:46:08.951Z,4.00
2019-03-21T06:50:14.385Z,4.00
2019-03-21T06:54:20.232Z,4.10
2019-03-21T06:58:25.547Z,4.20
2019-03-21T07:02:31.112Z,4.30
2019-03-21T07:06:36.519Z,4.20
2019-03-21T07:10:41.937Z,4.30
2019-03-21T07:14:47.229Z,4.50
2019-03-21T07:18:52.577Z,4.70
2019-03-21T07:22:59.264Z,4.70
2019-03-21T07:27:04.712Z,4.70
2019-03-21T07:31:11.446Z,4.90
2019-03-21T07:35:16.989Z,5.10
2019-03-21T07:39:22.320Z,5.20
2019-03-21T07:43:27.680Z,5.40
2019-03-21T07:47:33.006Z,5.50
2019-03-21T07:51:38.395Z,5.60
2019-03-21T07:55:43.756Z,5.70
2019-03-21T07:59:49.189Z,5.80
2019-03-21T08:03:54.761Z,5.90
2019-03-21T08:08:00.137Z,6.10
2019-03-21T08:12:05.485Z,6.30
2019-03-21T08:16:10.915Z,6.30
2019-03-21T08:20:16.482Z,6.50
2019-03-21T08:24:21.749Z,6.60
2019-03-21T08:28:27.169Z,6.80
2019-03-21T08:32:32.860Z,6.90
2019-03-21T08:36:38.155Z,7.10
2019-03-21T08:40:43.484Z,7.20
2019-03-21T08:44:48.723Z,7.40
2019-03-21T08:48:54.089Z,7.50
2019-03-21T08:52:59.449Z,7.50
2019-03-21T08:57:04.779Z,7.70
2019-03-21T09:01:10.080Z,7.80
2019-03-21T09:05:15.596Z,7.90
2019-03-21T09:09:20.909Z,8.10
2019-03-21T09:13:26.244Z,8.10
2019-03-21T09:17:31.515Z,8.30
2019-03-21T09:21:36.800Z,8.60
2019-03-21T09:25:42.153Z,8.50
2019-03-21T09:29:53.441Z,8.80
2019-03-21T09:33:54.750Z,8.90
2019-03-21T09:38:00.056Z,8.90
2019-03-21T09:42:06.593Z,8.90
2019-03-21T09:46:11.967Z,9.00
2019-03-21T09:50:25.900Z,9.20
2019-03-21T09:54:31.359Z,9.50
2019-03-21T09:58:36.703Z,9.50
2019-03-21T10:02:42.360Z,9.40
2019-03-21T10:06:47.656Z,9.50
2019-03-21T10:10:53.306Z,9.60
2019-03-21T10:14:58.664Z,9.60
2019-03-21T10:19:03.995Z,9.90
2019-03-21T10:23:11.571Z,10.00
2019-03-21T10:27:19.120Z,10.10
2019-03-21T10:31:24.728Z,10.30
2019-03-21T10:35:32.563Z,10.50
2019-03-21T10:39:37.398Z,10.30
2019-03-21T10:43:42.929Z,10.50
2019-03-21T10:47:48.271Z,10.60
2019-03-21T10:51:55.183Z,10.70
2019-03-21T10:56:00.830Z,10.90
2019-03-21T11:00:08.392Z,10.80
2019-03-21T11:04:13.742Z,10.80
2019-03-21T11:08:19.163Z,10.80
2019-03-21T11:12:24.635Z,10.90
2019-03-21T11:16:31.478Z,11.00
2019-03-21T11:20:41.032Z,11.10
2019-03-21T11:24:47.548Z,11.10
2019-03-21T11:28:54.064Z,11.20
2019-03-21T11:32:59.429Z,11.20
2019-03-21T11:37:05.172Z,11.40
2019-03-21T11:41:10.808Z,11.60
2019-03-21T11:45:16.217Z,11.80
2019-03-21T11:49:21.493Z,12.00
2019-03-21T11:53:26.773Z,12.20
2019-03-21T11:57:32.144Z,12.60
2019-03-21T12:01:37.537Z,12.80
2019-03-21T12:05:42.970Z,12.90
2019-03-21T12:09:48.339Z,13.10
2019-03-21T12:13:53.623Z,13.40
2019-03-21T12:17:58.960Z,13.70
2019-03-21T12:22:04.401Z,13.80
2019-03-21T12:26:09.767Z,14.10
2019-03-21T12:30:18.644Z,14.40
2019-03-21T12:34:24.327Z,14.60
2019-03-21T12:38:29.668Z,14.90
2019-03-21T12:42:34.965Z,15.40
2019-03-21T12:46:40.308Z,15.80
2019-03-21T12:50:45.706Z,16.40
2019-03-21T12:54:51.096Z,16.90
2019-03-21T12:58:56.443Z,17.40
2019-03-21T13:03:01.868Z,17.80
2019-03-21T13:07:07.298Z,18.20
2019-03-21T13:11:12.648Z,18.80
2019-03-21T13:15:29.252Z,19.10
2019-03-21T13:19:24.961Z,19.40
2019-03-21T13:23:30.327Z,19.80
2019-03-21T13:27:54.589Z,19.90
2019-03-21T13:32:01.032Z,20.30
2019-03-21T13:36:06.400Z,21.10
2019-03-21T13:40:11.815Z,21.30
2019-03-21T13:44:17.181Z,21.30
2019-03-21T13:48:22.450Z,21.40
2019-03-21T13:52:28.156Z,21.40
2019-03-21T13:56:38.059Z,21.20
2019-03-21T14:00:41.239Z,21.40
2019-03-21T14:04:46.792Z,21.50
2019-03-21T14:08:52.148Z,21.40
2019-03-21T14:12:57.523Z,21.60
2019-03-21T14:17:02.872Z,22.10
2019-03-21T14:21:08.242Z,22.50
2019-03-21T14:25:14.316Z,22.70
2019-03-21T14:29:19.604Z,22.80
2019-03-21T14:33:25.053Z,22.90
2019-03-21T14:37:31.422Z,23.50
2019-03-21T14:41:36.865Z,23.30
2019-03-21T14:45:42.311Z,23.30
2019-03-21T14:49:47.824Z,23.10
2019-03-21T14:53:53.212Z,23.90
2019-03-21T14:57:58.697Z,24.00
2019-03-21T15:02:04.135Z,23.70
2019-03-21T15:06:10.483Z,23.80
2019-03-21T15:10:16.204Z,23.40
2019-03-21T15:14:21.939Z,23.80
2019-03-21T15:18:27.351Z,24.20
2019-03-21T15:22:32.796Z,24.40
2019-03-21T15:26:38.266Z,24.90
2019-03-21T15:30:43.704Z,25.20
2019-03-21T15:34:48.976Z,24.90
2019-03-21T15:38:54.400Z,24.40
2019-03-21T15:42:59.684Z,24.00
2019-03-21T15:47:05.090Z,23.50
2019-03-21T15:51:10.473Z,23.10
2019-03-21T15:55:15.754Z,22.60
2019-03-21T15:59:21.381Z,22.20
2019-03-21T16:03:26.643Z,21.80
2019-03-21T16:07:32.043Z,21.80
2019-03-21T16:11:37.322Z,21.60
2019-03-21T16:15:42.772Z,21.30
2019-03-21T16:19:48.113Z,20.90
2019-03-21T16:24:04.518Z,20.80
2019-03-21T16:28:00.908Z,20.40
2019-03-21T16:32:07.390Z,20.00
2019-03-21T16:36:12.732Z,19.80
2019-03-21T16:40:18.259Z,19.40
2019-03-21T16:44:23.543Z,19.00
2019-03-21T16:48:28.860Z,18.70
2019-03-21T16:52:34.491Z,18.50
2019-03-21T16:56:39.895Z,18.30
2019-03-21T17:00:45.324Z,18.10
2019-03-21T17:04:50.665Z,17.80
2019-03-21T17:08:56.068Z,17.70
2019-03-21T17:13:04.508Z,17.50
2019-03-21T17:17:08.852Z,17.40
2019-03-21T17:21:14.131Z,17.10
2019-03-21T17:25:19.553Z,16.90
2019-03-21T17:29:25.231Z,16.80
2019-03-21T17:33:30.581Z,16.50
2019-03-21T17:37:36.007Z,16.30
2019-03-21T17:41:43.322Z,16.20
2019-03-21T17:45:48.559Z,15.90
2019-03-21T17:49:53.907Z,15.70
2019-03-21T17:53:59.261Z,15.60
2019-03-21T17:58:05.009Z,15.40
2019-03-21T18:02:10.728Z,15.20
2019-03-21T18:06:16.017Z,15.10
2019-03-21T18:10:29.338Z,15.10
2019-03-21T18:14:34.755Z,14.90
2019-03-21T18:18:40.631Z,14.90
2019-03-21T18:22:46.389Z,14.70
2019-03-21T18:26:51.803Z,14.60
2019-03-21T18:30:57.500Z,14.50
2019-03-21T18:35:02.761Z,14.50
2019-03-21T18:39:09.213Z,14.40
2019-03-21T18:43:14.880Z,14.30
2019-03-21T18:47:20.307Z,14.10
2019-03-21T18:51:26.231Z,14.00
2019-03-21T18:55:31.636Z,13.90
2019-03-21T18:59:37.006Z,13.80
2019-03-21T19:03:42.378Z,13.50
2019-03-21T19:07:47.801Z,13.40
2019-03-21T19:11:53.500Z,13.30
2019-03-21T19:15:58.910Z,13.20
2019-03-21T19:20:05.494Z,13.20
2019-03-21T19:24:14.965Z,13.10
2019-03-21T19:28:20.920Z,13.20
2019-03-21T19:32:26.499Z,13.20
2019-03-21T19:36:31.876Z,13.10
2019-03-21T19:40:37.492Z,13.10
2019-03-21T19:44:43.365Z,13.10
2019-03-21T19:48:50.474Z,13.10
2019-03-21T19:52:56.324Z,13.10
2019-03-21T19:57:01.584Z,13.10
2019-03-21T20:01:08.388Z,12.90
2019-03-21T20:05:14.847Z,12.80
2019-03-21T20:09:20.499Z,12.70
2019-03-21T20:13:26.287Z,12.60
2019-03-21T20:17:32.060Z,12.50
2019-03-21T20:21:47.304Z,12.40
2019-03-21T20:25:44.781Z,12.30
2019-03-21T20:29:50.150Z,12.20
2019-03-21T20:33:55.513Z,12.10
2019-03-21T20:38:00.933Z,12.10
2019-03-21T20:42:07.450Z,12.00
2019-03-21T20:46:12.877Z,11.80
2019-03-21T20:50:19.308Z,11.70
2019-03-21T20:54:24.749Z,11.60
2019-03-21T20:58:30.375Z,11.50
2019-03-21T21:02:36.013Z,11.40
2019-03-21T21:06:41.296Z,11.30
2019-03-21T21:10:46.576Z,11.30
2019-03-21T21:14:51.924Z,11.40
2019-03-21T21:18:57.232Z,11.30
2019-03-21T21:23:02.673Z,11.20
2019-03-21T21:27:08.680Z,11.10
2019-03-21T21:31:14.223Z,10.50
2019-03-21T21:35:20.314Z,10.30
2019-03-21T21:39:26.644Z,10.30
2019-03-21T21:43:32.327Z,10.20
2019-03-21T21:47:38.284Z,10.20
2019-03-21T21:51:43.888Z,10.10
2019-03-21T21:55:49.224Z,9.90
2019-03-21T21:59:54.651Z,9.90
2019-03-21T22:04:04.987Z,9.80
2019-03-21T22:08:08.245Z,9.70
2019-03-21T22:12:13.912Z,9.70
2019-03-21T22:16:22.789Z,9.50
2019-03-21T22:20:28.246Z,9.40
2019-03-21T22:24:33.690Z,9.40
2019-03-21T22:28:39.036Z,9.30
2019-03-21T22:32:44.557Z,9.40
2019-03-21T22:36:50.038Z,9.30
2019-03-21T22:40:55.979Z,9.30
2019-03-21T22:45:01.313Z,9.30
2019-03-21T22:49:06.816Z,9.10
2019-03-21T22:53:12.464Z,9.10
2019-03-21T22:57:17.804Z,9.10
2019-03-21T23:01:23.855Z,9.00
2019-03-21T23:05:29.345Z,9.00
2019-03-21T23:09:34.682Z,8.80
2019-03-21T23:13:40.607Z,8.80
2019-03-21T23:17:45.984Z,8.70
2019-03-21T23:21:53.019Z,8.60
2019-03-21T23:25:58.446Z,8.50
2019-03-21T23:30:05.348Z,8.50
2019-03-21T23:34:10.628Z,8.50
2019-03-21T23:38:15.971Z,8.30
2019-03-21T23:42:21.575Z,8.20
2019-03-21T23:46:26.833Z,8.30
2019-03-21T23:50:32.170Z,8.20
2019-03-21T23:54:37.655Z,7.50
2019-03-21T23:58:42.928Z,7.50
